ADL weather

Adelaide International Airport
Adelaide, South Australia, Australia

Public forecast

Using degrees Celsius for public forecast. Weather courtesy of forecast.io.

METAR (pilot weather report)

Retrieved 2018/05/28 07:00 UTC (8 minutes ago):

YPAD 280700Z 35014KT CAVOK 21/12 Q1011 INTER 0930/1000 28030G42KT 5000 SHRA SCT015 BKN020

TAF (pilot weather forecast)

Retrieved 2018/05/28 06:00 UTC (1 hour ago):

TAF YPAD 280536Z 2806/2912 34015G25KT 9999 SCT035 FM281000 28016G30KT 9999 -SHRA SCT025 BKN035 FM281900 26014KT 9999 SCT030 FM290200 27018G35KT 9999 -SHRA BKN030 FM291000 24014KT 9999 SCT040 INTER 2809/2815 28030G42KT 5000 SHRA SCT015 BKN020 INTER 2902/2910 5000 SHRA SCT020 BKN030 PROB30 INTER 2809/2815 VRB30G45KT 3000 TSRA BKN020